• Join FlightAware (Why Join?)
  • Login
  • US Flag 
01:28AM EDT


 

Airport Tracker/Info


-or-


 

Live Flight TrackerFlight Track Log ✈ NKS439 ✈ 25-Jan-2014 ✈ KFLL - MNMG / MGA

Flight Track Log - Related Links

Times and Time Zones

All times are in EST time to prevent confusion due to time zone crossing. See the NKS439 flight status page for this flight to view local times or setup timezone preferences in your user account.

Time Position Orientation Groundspeed Altitude Reporting Facility
EST Latitude Longitude Course Direction KTS MPH feet Rate Location/Type
12:02AM 26.0739 -80.1783 275° West 172 198 800  Level Miami Center
12:04AM 26.0806 -80.2617 275° West 257 296 2,700 1,320 Climbing Miami Center
12:05AM 26.0892 -80.3383 277° West 255 293 3,900 2,040 Climbing Miami Center
12:06AM 26.0939 -80.4008 275° West 259 298 6,400 3,060 Climbing Miami Center
12:06AM 26.0550 -80.4483 228° Southwest 274 315 9,000 2,100 Climbing Miami Center
12:08AM 25.9522 -80.4706 191° South 339 390 10,900 1,560 Climbing Miami Center
12:08AM 25.8917 -80.4711 180° South 361 415 12,100 1,920 Climbing Miami Center
12:09AM 25.7869 -80.4772 183° South 369 425 14,300 1,980 Climbing Miami Center
12:10AM 25.6739 -80.4875 185° South 396 456 16,200 1,860 Climbing Miami Center
12:11AM 25.5586 -80.5072 189° South 396 456 18,100 1,680 Climbing Miami Center
12:12AM 25.4578 -80.5317 192° South 401 461 19,600 1,500 Climbing Miami Center
12:13AM 25.3358 -80.5647 194° South 407 468 21,100 1,380 Climbing Miami Center
12:14AM 25.2200 -80.5958 194° South 420 483 22,500 1,380 Climbing Miami Center
12:15AM 25.1044 -80.6289 195° South 420 483 23,900 1,380 Climbing Miami Center
12:16AM 24.9867 -80.6597 193° South 425 489 25,200 1,320 Climbing Miami Center
12:17AM 24.8689 -80.6903 193° South 436 502 26,500 1,140 Climbing Miami Center
12:18AM 24.7511 -80.7233 194° South 436 502 27,600 1,020 Climbing Miami Center
12:19AM 24.6311 -80.7539 193° South 436 502 28,600 780 Climbing Miami Center
12:20AM 24.5069 -80.7864 193° South 441 507 29,200 1,020 Climbing Miami Center
12:21AM 24.3850 -80.8192 194° South 446 513 30,700 1,440 Climbing Miami Center
12:22AM 24.2736 -80.8431 191° South 453 521 32,100 1,200 Climbing Miami Center
12:23AM 24.1475 -80.8775 194° South 447 514 33,200 840 Climbing Miami Center
12:24AM 24.0317 -80.9081 194° South 435 501 33,800 540 Climbing Miami Center
12:26AM 23.9148 -80.9309 189° South  Level FlightAware Approximate
12:33AM 23.1788 -81.1184 193° South  Level FlightAware Approximate
12:34AM 23.0737 -81.1452 193° South  Level FlightAware Approximate
12:35AM 22.9686 -81.1720 193° South  Level FlightAware Approximate
12:36AM 22.8634 -81.1987 193° South  Level FlightAware Approximate
12:37AM 22.7583 -81.2254 193° South  Level FlightAware Approximate
12:38AM 22.6531 -81.2521 193° South  Level FlightAware Approximate
12:39AM 22.5480 -81.2787 193° South  Level FlightAware Approximate
12:40AM 22.4428 -81.3052 193° South  Level FlightAware Approximate
12:41AM 22.3377 -81.3317 193° South  Level FlightAware Approximate
12:42AM 22.2325 -81.3582 193° South  Level FlightAware Approximate
12:43AM 22.1273 -81.3847 193° South  Level FlightAware Approximate
12:44AM 22.0222 -81.4111 193° South  Level FlightAware Approximate
12:45AM 21.9170 -81.4374 193° South  Level FlightAware Approximate
12:46AM 21.8118 -81.4638 193° South  Level FlightAware Approximate
12:47AM 21.7066 -81.4901 193° South  Level FlightAware Approximate
12:48AM 21.6014 -81.5163 193° South  Level FlightAware Approximate
12:49AM 21.5034 -81.5650 205° Southwest  Level FlightAware Approximate
12:50AM 21.4055 -81.6139 205° Southwest  Level FlightAware Approximate
12:51AM 21.3086 -81.6651 206° Southwest  Level FlightAware Approximate
12:52AM 21.2117 -81.7163 206° Southwest  Level FlightAware Approximate
12:53AM 21.1149 -81.7675 206° Southwest  Level FlightAware Approximate
12:54AM 21.0180 -81.8186 206° Southwest  Level FlightAware Approximate
12:55AM 20.9211 -81.8696 206° Southwest  Level FlightAware Approximate
12:56AM 20.8242 -81.9206 206° Southwest  Level FlightAware Approximate
12:57AM 20.7272 -81.9715 206° Southwest  Level FlightAware Approximate
12:58AM 20.6303 -82.0223 206° Southwest  Level FlightAware Approximate
12:59AM 20.5333 -82.0731 206° Southwest  Level FlightAware Approximate
01:00AM 20.4364 -82.1238 206° Southwest  Level FlightAware Approximate
01:01AM 20.3394 -82.1745 206° Southwest  Level FlightAware Approximate
01:02AM 20.2424 -82.2251 206° Southwest  Level FlightAware Approximate
01:03AM 20.1454 -82.2757 206° Southwest  Level FlightAware Approximate
01:04AM 20.0483 -82.3260 206° Southwest  Level FlightAware Approximate
01:05AM 19.9510 -82.3757 206° Southwest  Level FlightAware Approximate
01:06AM 19.8536 -82.4253 206° Southwest  Level FlightAware Approximate
01:07AM 19.7562 -82.4749 206° Southwest  Level FlightAware Approximate
01:08AM 19.6588 -82.5244 206° Southwest  Level FlightAware Approximate
01:09AM 19.5614 -82.5739 206° Southwest  Level FlightAware Approximate
01:10AM 19.4639 -82.6233 206° Southwest  Level FlightAware Approximate
01:11AM 19.3665 -82.6726 206° Southwest  Level FlightAware Approximate
01:12AM 19.2690 -82.7219 206° Southwest  Level FlightAware Approximate
01:13AM 19.1715 -82.7711 205° Southwest  Level FlightAware Approximate
01:14AM 19.0741 -82.8202 205° Southwest  Level FlightAware Approximate
01:15AM 18.9765 -82.8693 205° Southwest  Level FlightAware Approximate
01:16AM 18.8790 -82.9183 205° Southwest  Level FlightAware Approximate
01:17AM 18.7815 -82.9673 205° Southwest  Level FlightAware Approximate
01:18AM 18.6840 -83.0162 205° Southwest  Level FlightAware Approximate
01:19AM 18.5864 -83.0651 205° Southwest  Level FlightAware Approximate
01:20AM 18.4888 -83.1137 205° Southwest  Level FlightAware Approximate
01:21AM 18.3910 -83.1619 205° Southwest  Level FlightAware Approximate
01:22AM 18.2931 -83.2101 205° Southwest  Level FlightAware Approximate
01:23AM 18.1953 -83.2582 205° Southwest  Level FlightAware Approximate
01:24AM 18.0974 -83.3062 205° Southwest  Level FlightAware Approximate
01:25AM 17.9995 -83.3542 205° Southwest  Level FlightAware Approximate
01:26AM 17.9016 -83.4021 205° Southwest  Level FlightAware Approximate
01:27AM 17.8037 -83.4500 205° Southwest  Level FlightAware Approximate
01:28AM 17.7058 -83.4978 205° Southwest  Level FlightAware Approximate
01:29AM 17.6079 -83.5456 205° Southwest  Level FlightAware Approximate
01:30AM 17.5100 -83.5933 205° Southwest  Level FlightAware Approximate
01:31AM 17.4121 -83.6410 205° Southwest  Level FlightAware Approximate
01:32AM 17.3141 -83.6886 205° Southwest  Level FlightAware Approximate
01:33AM 17.2161 -83.7361 205° Southwest  Level FlightAware Approximate
01:34AM 17.1182 -83.7837 205° Southwest  Level FlightAware Approximate
01:35AM 17.0203 -83.8314 205° Southwest  Level FlightAware Approximate
01:36AM 16.9227 -83.8797 205° Southwest  Level FlightAware Approximate
01:37AM 16.8251 -83.9280 205° Southwest  Level FlightAware Approximate
01:38AM 16.7275 -83.9762 205° Southwest  Level FlightAware Approximate
01:39AM 16.6299 -84.0244 205° Southwest  Level FlightAware Approximate
01:40AM 16.5322 -84.0726 205° Southwest  Level FlightAware Approximate
01:41AM 16.4346 -84.1207 205° Southwest  Level FlightAware Approximate
01:42AM 16.3370 -84.1687 205° Southwest  Level FlightAware Approximate
01:43AM 16.2393 -84.2167 205° Southwest  Level FlightAware Approximate
01:44AM 16.1416 -84.2646 205° Southwest  Level FlightAware Approximate
01:45AM 16.0439 -84.3125 205° Southwest  Level FlightAware Approximate
01:46AM 15.9462 -84.3604 205° Southwest  Level FlightAware Approximate
01:47AM 15.8482 -84.4075 205° Southwest  Level FlightAware Approximate
01:48AM 15.7502 -84.4546 205° Southwest  Level FlightAware Approximate
01:49AM 15.6521 -84.5016 205° Southwest  Level FlightAware Approximate
01:50AM 15.5541 -84.5485 205° Southwest  Level FlightAware Approximate
01:51AM 15.4560 -84.5954 205° Southwest  Level FlightAware Approximate
01:52AM 15.3579 -84.6423 205° Southwest  Level FlightAware Approximate
01:53AM 15.2598 -84.6891 205° Southwest  Level FlightAware Approximate
01:54AM 15.1617 -84.7359 205° Southwest  Level FlightAware Approximate
01:55AM 15.0636 -84.7826 205° Southwest  Level FlightAware Approximate
01:56AM 14.9655 -84.8293 205° Southwest  Level FlightAware Approximate
01:57AM 14.8674 -84.8759 205° Southwest  Level FlightAware Approximate
01:58AM 14.7693 -84.9226 205° Southwest  Level FlightAware Approximate
01:59AM 14.6713 -84.9694 205° Southwest  Level FlightAware Approximate
02:00AM 14.5732 -85.0162 205° Southwest  Level FlightAware Approximate
02:01AM 14.4752 -85.0629 205° Southwest  Level FlightAware Approximate
02:02AM 14.3771 -85.1096 205° Southwest  Level FlightAware Approximate
02:03AM 14.2790 -85.1562 205° Southwest  Level FlightAware Approximate
02:04AM 14.1809 -85.2028 205° Southwest  Level FlightAware Approximate
02:05AM 14.0829 -85.2494 205° Southwest  Level FlightAware Approximate
02:06AM 13.9847 -85.2959 205° Southwest  Level FlightAware Approximate
02:07AM 13.8866 -85.3423 205° Southwest  Level FlightAware Approximate
02:08AM 13.7886 -85.3890 206° Southwest  Level FlightAware Approximate
02:09AM 13.6888 -85.4306 206° Southwest  Level FlightAware Approximate
02:10AM 13.5917 -85.4792 206° Southwest  Level FlightAware Approximate
02:11AM 13.4945 -85.5277 206° Southwest  Level FlightAware Approximate
02:12AM 13.3962 -85.5736 204° Southwest  Level FlightAware Approximate
02:13AM 13.2977 -85.6190 204° Southwest  Level FlightAware Approximate
02:14AM 13.1996 -85.6656 205° Southwest  Level FlightAware Approximate
02:15AM 13.1018 -85.7125 205° Southwest  Level FlightAware Approximate
02:16AM 13.0040 -85.7595 205° Southwest  Level FlightAware Approximate
02:17AM 12.9062 -85.8064 205° Southwest  Level FlightAware Approximate
02:18AM 12.8078 -85.8521 203° Southwest  Level FlightAware Approximate
02:19AM 12.7087 -85.8961 203° Southwest  Level FlightAware Approximate
02:20AM 12.6115 -85.9443 206° Southwest  Level FlightAware Approximate
02:21AM 12.5145 -85.9928 206° Southwest  Level FlightAware Approximate
02:22AM 12.4157 -86.0375 203° Southwest  Level FlightAware Approximate
02:23AM 12.3161 -86.0802 201° Southwest  Level FlightAware Approximate
02:24AM 12.2174 -86.1246 206° Southwest  Level FlightAware Approximate
02:25AM 12.1437 -86.1563 44° Northeast  Level FlightAware Approximate
02:26AM 12.1500 -86.1500 44° Northeast  Level FlightAware Approximate
02:27AM 12.1415 -86.1682 44° Northeast  Level Estimated
02:28AM 12.1415 -86.1682 44° Northeast  Level Estimated
02:29AM 12.1415 -86.1682 44° Northeast  Level Estimated
02:30AM 12.1415 -86.1682 44° Northeast  Level Estimated
02:31AM 12.1415 -86.1682 44° Northeast  Level Estimated
02:32AM 12.1415 -86.1682 44° Northeast  Level Estimated
02:33AM 12.1415 -86.1682 44° Northeast  Level Estimated
02:34AM 12.1415 -86.1682 44° Northeast  Level Estimated
02:35AM 12.1415 -86.1682 44° Northeast  Level Estimated
02:36AM 12.1415 -86.1682 44° Northeast  Level Estimated
02:37AM 12.1415 -86.1682 44° Northeast  Level Estimated
02:38AM 12.1415 -86.1682 44° Northeast  Level Estimated